Time;durP1;ratioP1;P1;durP2;ratioP2;P2;SDS_P1;SDS_P2;PMS_P1;PMS_P2;Temp;Humidity;BMP_temperature;BMP_pressure;BME280_temperature;BME280_humidity;BME280_pressure;Samples;Min_cycle;Max_cycle;Signal;HPM_P1;HPM_P2
2021/01/15 00:01:18;;;;;;;3.73;2.50;;;1.20;99.90;;;;;;5053065;28;20709;-59
2021/01/15 00:03:44;;;;;;;3.43;2.17;;;1.20;99.90;;;;;;5053233;28;20305;-58
2021/01/15 00:06:19;;;;;;;9.20;2.70;;;1.10;99.90;;;;;;5053339;28;20206;-58
2021/01/15 00:08:45;;;;;;;5.23;2.87;;;1.10;99.90;;;;;;5053607;28;20552;-58
2021/01/15 00:11:16;;;;;;;4.00;2.03;;;1.20;99.90;;;;;;5053171;28;20233;-58
2021/01/15 00:13:43;;;;;;;5.60;3.40;;;1.10;99.90;;;;;;5053085;28;20217;-59
2021/01/15 00:16:18;;;;;;;4.17;2.67;;;1.20;99.90;;;;;;5052966;28;20205;-59
2021/01/15 00:18:44;;;;;;;3.53;2.30;;;1.10;99.90;;;;;;5053129;28;20209;-58
2021/01/15 00:21:18;;;;;;;8.10;3.63;;;1.20;99.90;;;;;;5053039;28;20238;-59
2021/01/15 00:23:44;;;;;;;3.47;2.07;;;1.10;99.90;;;;;;5052975;28;20205;-59
2021/01/15 00:26:15;;;;;;;4.33;2.53;;;1.10;99.90;;;;;;5052901;28;20209;-57
2021/01/15 00:28:41;;;;;;;4.10;2.50;;;1.00;99.90;;;;;;5052554;28;20206;-57
2021/01/15 00:31:07;;;;;;;3.37;2.10;;;1.10;99.90;;;;;;5052698;28;20232;-57
2021/01/15 00:33:34;;;;;;;3.30;2.33;;;1.00;99.90;;;;;;5052834;28;20217;-57
2021/01/15 00:36:00;;;;;;;3.87;2.57;;;1.00;99.90;;;;;;5052194;28;20685;-57
2021/01/15 00:38:27;;;;;;;3.60;2.00;;;1.00;99.90;;;;;;5052507;28;20573;-57
2021/01/15 00:40:58;;;;;;;3.47;2.20;;;0.90;99.90;;;;;;5052608;28;20225;-57
2021/01/15 00:43:24;;;;;;;3.23;2.07;;;0.90;99.90;;;;;;5052577;28;20205;-57
2021/01/15 00:45:50;;;;;;;3.17;2.23;;;0.80;99.90;;;;;;5052835;28;20279;-57
2021/01/15 00:48:16;;;;;;;3.87;2.43;;;0.80;99.90;;;;;;5052725;28;20216;-56
2021/01/15 00:50:43;;;;;;;3.60;2.03;;;0.80;99.90;;;;;;5053003;28;20262;-58
2021/01/15 00:53:09;;;;;;;3.40;2.50;;;0.80;99.90;;;;;;5052945;28;20246;-57
2021/01/15 00:55:36;;;;;;;4.33;2.47;;;0.80;99.90;;;;;;5052444;28;20205;-57
2021/01/15 00:58:03;;;;;;;3.73;2.50;;;0.80;99.90;;;;;;5052750;28;20255;-57
2021/01/15 01:00:29;;;;;;;4.73;2.33;;;0.70;99.90;;;;;;5052512;28;20760;-58
2021/01/15 01:02:55;;;;;;;3.97;2.43;;;0.70;99.90;;;;;;5052444;28;20684;-57
2021/01/15 01:05:22;;;;;;;3.80;2.10;;;0.70;99.90;;;;;;5052240;28;20572;-57
2021/01/15 01:07:49;;;;;;;3.37;2.00;;;0.70;99.90;;;;;;5052128;28;20213;-58
2021/01/15 01:10:16;;;;;;;3.83;2.20;;;0.60;99.90;;;;;;5052210;28;20201;-58
2021/01/15 01:12:43;;;;;;;3.55;2.38;;;0.70;99.90;;;;;;5051481;28;20431;-63
2021/01/15 01:15:10;;;;;;;3.10;2.10;;;0.70;99.90;;;;;;5052316;28;20206;-61
2021/01/15 01:17:37;;;;;;;3.83;2.40;;;0.70;99.90;;;;;;5051929;28;20205;-60
2021/01/15 01:20:03;;;;;;;4.17;2.47;;;0.60;99.90;;;;;;5051906;28;20213;-61
2021/01/15 01:22:29;;;;;;;4.33;2.47;;;0.70;99.90;;;;;;5051655;28;20279;-60
2021/01/15 01:24:56;;;;;;;3.93;2.57;;;0.70;99.90;;;;;;5051635;28;20569;-61
2021/01/15 01:27:23;;;;;;;6.03;2.40;;;0.70;99.90;;;;;;5052068;28;20209;-61
2021/01/15 01:29:49;;;;;;;3.43;2.20;;;0.60;99.90;;;;;;5052079;28;20711;-61
2021/01/15 01:32:15;;;;;;;2.97;2.60;;;0.50;99.90;;;;;;5051611;28;20226;-61
2021/01/15 01:34:41;;;;;;;3.07;2.40;;;0.50;99.90;;;;;;5051498;28;20213;-61
2021/01/15 01:37:07;;;;;;;3.80;2.47;;;0.40;99.90;;;;;;5051942;28;20213;-61
2021/01/15 01:39:33;;;;;;;3.10;2.73;;;0.40;99.90;;;;;;5051510;28;20220;-59
2021/01/15 01:42:01;;;;;;;4.60;2.20;;;0.50;99.90;;;;;;5051706;28;20260;-60
2021/01/15 01:44:27;;;;;;;4.03;2.40;;;0.50;99.90;;;;;;5051511;28;20205;-60
2021/01/15 01:46:54;;;;;;;3.80;2.53;;;0.50;99.90;;;;;;5051417;28;20202;-59
2021/01/15 01:49:20;;;;;;;4.03;2.40;;;0.50;99.90;;;;;;5051219;28;20603;-60
2021/01/15 01:51:49;;;;;;;3.80;2.30;;;0.50;99.90;;;;;;5051207;28;20628;-59
2021/01/15 01:54:16;;;;;;;3.77;2.43;;;0.60;99.90;;;;;;5051087;28;20201;-60
2021/01/15 01:56:42;;;;;;;2.33;2.13;;;0.60;99.90;;;;;;5051497;28;20221;-60
2021/01/15 01:59:13;;;;;;;3.30;2.40;;;0.60;99.90;;;;;;5051308;28;20243;-60
2021/01/15 02:01:39;;;;;;;3.00;2.30;;;0.60;99.90;;;;;;5051282;28;20229;-60
2021/01/15 02:04:06;;;;;;;3.87;2.43;;;0.60;99.90;;;;;;5051301;28;20233;-60
2021/01/15 02:06:33;;;;;;;4.03;2.50;;;0.60;99.90;;;;;;5051258;28;20355;-60
2021/01/15 02:09:02;;;;;;;2.97;2.30;;;0.60;99.90;;;;;;5051334;28;20208;-60
2021/01/15 02:11:34;;;;;;;3.63;2.40;;;0.60;99.90;;;;;;5051169;28;20228;-60
2021/01/15 02:14:06;;;;;;;3.67;2.43;;;0.60;99.90;;;;;;5051211;28;20221;-60
2021/01/15 02:16:35;;;;;;;3.93;2.50;;;0.50;99.90;;;;;;5051047;28;20206;-60
2021/01/15 02:19:11;;;;;;;3.10;2.40;;;0.40;99.90;;;;;;5050696;28;20236;-59
2021/01/15 02:22:15;;;;;;;3.87;2.20;;;0.40;99.90;;;;;;5050664;28;20787;-60
2021/01/15 02:24:56;;;;;;;6.27;2.70;;;0.40;99.90;;;;;;5050834;28;20258;-60
2021/01/15 02:27:54;;;;;;;3.23;2.53;;;0.40;99.90;;;;;;5050771;28;20566;-60
2021/01/15 02:30:36;;;;;;;4.03;2.50;;;0.40;99.90;;;;;;5050962;28;20214;-60
2021/01/15 02:33:13;;;;;;;2.87;2.40;;;0.50;99.90;;;;;;5050813;28;20252;-60
2021/01/15 02:35:49;;;;;;;4.53;2.70;;;0.50;99.90;;;;;;5050521;28;20216;-59
2021/01/15 02:38:30;;;;;;;3.00;2.53;;;0.40;99.90;;;;;;5050791;28;20213;-59
2021/01/15 02:41:10;;;;;;;3.33;2.70;;;0.40;99.90;;;;;;5050691;28;20233;-60
2021/01/15 02:43:37;;;;;;;7.53;3.07;;;0.40;99.90;;;;;;5050618;28;20554;-59
2021/01/15 02:46:06;;;;;;;3.37;2.60;;;0.50;99.90;;;;;;5050551;28;20201;-60
2021/01/15 02:48:38;;;;;;;3.93;2.63;;;0.40;99.90;;;;;;5050604;28;20210;-59
2021/01/15 02:51:06;;;;;;;3.10;2.30;;;0.40;99.90;;;;;;5050651;28;20252;-60
2021/01/15 02:53:34;;;;;;;5.40;2.53;;;0.30;99.90;;;;;;5050549;28;20212;-59
2021/01/15 02:56:00;;;;;;;4.70;2.57;;;0.20;99.90;;;;;;5050680;28;20574;-60
2021/01/15 02:58:26;;;;;;;3.27;2.30;;;0.10;99.90;;;;;;5050477;28;20216;-59
2021/01/15 03:00:52;;;;;;;4.10;2.50;;;0.10;99.90;;;;;;5053734;28;20371;-60
2021/01/15 03:03:26;;;;;;;3.27;2.30;;;0.00;99.90;;;;;;5054373;28;20222;-59
2021/01/15 03:05:59;;;;;;;5.37;2.50;;;0.00;99.90;;;;;;5054624;28;20518;-59
2021/01/15 03:08:27;;;;;;;3.83;2.60;;;0.00;99.90;;;;;;5054326;28;20213;-59
2021/01/15 03:10:54;;;;;;;5.30;3.17;;;0.10;99.90;;;;;;5054363;28;20732;-59
2021/01/15 03:13:28;;;;;;;5.57;2.70;;;0.10;99.90;;;;;;5054679;28;20263;-60
2021/01/15 03:15:56;;;;;;;3.53;2.53;;;0.10;99.90;;;;;;5054345;28;20305;-60
2021/01/15 03:18:23;;;;;;;4.40;2.70;;;0.20;99.90;;;;;;5054432;28;20259;-60
2021/01/15 03:20:49;;;;;;;3.17;2.43;;;0.20;99.90;;;;;;5069898;22;20237;-64
2021/01/15 03:23:16;;;;;;;3.50;2.97;;;0.10;99.90;;;;;;5053642;28;20226;-65
2021/01/15 03:25:43;;;;;;;3.33;2.67;;;0.10;99.90;;;;;;5055070;28;20202;-64
2021/01/15 03:28:09;;;;;;;4.90;2.67;;;0.10;99.90;;;;;;5054950;28;20236;-68
2021/01/15 03:30:35;;;;;;;5.00;2.90;;;0.00;99.90;;;;;;5055048;28;20276;-66
2021/01/15 03:33:03;;;;;;;4.33;3.10;;;0.00;99.90;;;;;;5054819;28;20637;-66
2021/01/15 03:35:30;;;;;;;4.50;2.93;;;0.00;99.90;;;;;;5054303;28;20213;-66
2021/01/15 03:37:59;;;;;;;3.63;2.80;;;0.00;99.90;;;;;;5054438;28;20209;-63
2021/01/15 03:40:27;;;;;;;3.37;2.70;;;0.00;99.90;;;;;;5054342;28;20296;-65
2021/01/15 03:42:53;;;;;;;4.30;3.10;;;0.00;99.90;;;;;;5054131;28;20701;-63
2021/01/15 03:45:20;;;;;;;3.37;3.07;;;0.10;99.90;;;;;;5054507;28;20255;-64
2021/01/15 03:47:46;;;;;;;3.30;2.67;;;0.20;99.90;;;;;;5054227;28;20206;-65
2021/01/15 03:50:13;;;;;;;4.20;3.03;;;0.10;99.90;;;;;;5054465;28;20667;-64
2021/01/15 03:52:39;;;;;;;5.77;3.00;;;0.10;99.90;;;;;;5053845;28;20283;-66
2021/01/15 03:55:06;;;;;;;4.57;2.73;;;0.10;99.90;;;;;;5053870;28;20206;-65
2021/01/15 03:57:33;;;;;;;4.67;2.93;;;0.10;99.90;;;;;;5054133;28;20202;-64
2021/01/15 04:00:00;;;;;;;3.37;2.77;;;0.00;99.90;;;;;;5054027;28;20212;-65
2021/01/15 04:02:27;;;;;;;3.47;2.60;;;0.00;99.90;;;;;;5053918;28;20252;-62
2021/01/15 04:04:53;;;;;;;5.90;2.97;;;0.00;99.90;;;;;;5053797;28;20209;-64
2021/01/15 04:07:19;;;;;;;3.60;2.83;;;0.00;99.90;;;;;;5053894;28;20209;-64
2021/01/15 04:09:45;;;;;;;3.63;2.63;;;-0.10;99.90;;;;;;5054164;28;20209;-64
2021/01/15 04:12:12;;;;;;;4.77;3.10;;;-0.10;99.90;;;;;;5052912;28;20229;-63
2021/01/15 04:14:39;;;;;;;5.80;3.10;;;-0.10;99.90;;;;;;5053683;28;20209;-64
2021/01/15 04:17:06;;;;;;;3.60;2.70;;;-0.10;99.90;;;;;;5053958;28;20246;-65
2021/01/15 04:19:32;;;;;;;3.93;2.97;;;-0.10;99.90;;;;;;5053915;28;20260;-64
2021/01/15 04:21:58;;;;;;;4.13;3.13;;;-0.10;99.90;;;;;;5053301;28;20244;-64
2021/01/15 04:24:25;;;;;;;4.13;3.07;;;-0.10;99.90;;;;;;5053754;28;20201;-64
2021/01/15 04:26:52;;;;;;;4.10;3.37;;;-0.10;99.90;;;;;;5053507;28;20701;-64
2021/01/15 04:29:19;;;;;;;4.00;3.27;;;-0.10;99.90;;;;;;5053280;28;20296;-64
2021/01/15 04:31:46;;;;;;;6.00;3.80;;;-0.10;99.90;;;;;;5053411;28;20248;-64
2021/01/15 04:34:13;;;;;;;4.43;3.50;;;-0.20;99.90;;;;;;5053099;28;20572;-63
2021/01/15 04:36:39;;;;;;;5.37;3.20;;;-0.40;99.90;;;;;;5053547;28;20224;-64
2021/01/15 04:39:06;;;;;;;3.80;3.17;;;-0.50;99.90;;;;;;5053469;28;20208;-63
2021/01/15 04:41:33;;;;;;;5.00;3.17;;;-0.60;99.90;;;;;;5053114;28;20642;-63
2021/01/15 04:44:00;;;;;;;4.20;3.60;;;-0.70;99.90;;;;;;5053166;28;20209;-64
2021/01/15 04:46:27;;;;;;;4.70;3.53;;;-0.80;99.90;;;;;;5053581;28;20206;-64
2021/01/15 04:48:55;;;;;;;7.43;3.50;;;-0.80;99.90;;;;;;5053025;28;20206;-65
2021/01/15 04:51:22;;;;;;;5.37;3.47;;;-0.80;99.90;;;;;;5053165;28;20229;-64
2021/01/15 04:53:55;;;;;;;4.43;3.70;;;-0.90;99.90;;;;;;5053219;28;20217;-63
2021/01/15 04:56:30;;;;;;;4.33;3.37;;;-0.80;99.90;;;;;;5053010;28;20205;-64
2021/01/15 04:59:02;;;;;;;6.00;3.30;;;-0.90;99.90;;;;;;5052646;28;20300;-64
2021/01/15 05:01:35;;;;;;;5.60;3.40;;;-1.00;99.90;;;;;;5052723;28;20308;-63
2021/01/15 05:04:06;;;;;;;5.50;3.87;;;-1.10;99.90;;;;;;5052906;28;20292;-63
2021/01/15 05:06:45;;;;;;;4.43;3.70;;;-1.10;99.90;;;;;;5052845;28;20288;-63
2021/01/15 05:09:13;;;;;;;8.00;4.97;;;-1.00;99.90;;;;;;5052659;28;20209;-64
2021/01/15 05:11:39;;;;;;;4.13;3.73;;;-0.90;99.90;;;;;;5052644;28;20795;-64
2021/01/15 05:14:11;;;;;;;6.37;3.77;;;-0.80;99.90;;;;;;5052754;28;20213;-64
2021/01/15 05:16:39;;;;;;;7.70;4.07;;;-0.80;99.90;;;;;;5053070;28;20206;-65
2021/01/15 05:19:06;;;;;;;5.30;3.70;;;-0.90;99.90;;;;;;5052708;28;20205;-65
2021/01/15 05:21:34;;;;;;;5.20;3.60;;;-0.90;99.90;;;;;;5053018;28;20274;-64
2021/01/15 05:24:01;;;;;;;5.63;3.87;;;-0.80;99.90;;;;;;5052226;28;20205;-65
2021/01/15 05:26:27;;;;;;;5.90;3.57;;;-0.80;99.90;;;;;;5052611;28;20202;-63
2021/01/15 05:28:54;;;;;;;8.63;4.43;;;-0.90;99.90;;;;;;5052861;28;20205;-65
2021/01/15 05:31:20;;;;;;;7.17;5.13;;;-0.90;99.90;;;;;;5052031;28;20233;-63
2021/01/15 05:34:09;;;;;;;5.90;4.43;;;-0.90;99.90;;;;;;5052025;28;20665;-63
2021/01/15 05:36:35;;;;;;;6.07;4.07;;;-0.90;99.90;;;;;;5052295;28;20209;-63
2021/01/15 05:39:10;;;;;;;6.03;4.30;;;-0.90;99.90;;;;;;5051991;28;20251;-63
2021/01/15 05:41:37;;;;;;;8.07;4.53;;;-0.90;99.90;;;;;;5051945;28;20671;-63
2021/01/15 05:44:04;;;;;;;5.80;4.67;;;-0.90;99.90;;;;;;5051909;28;20631;-64
2021/01/15 05:46:30;;;;;;;6.33;4.47;;;-0.90;99.90;;;;;;5051984;28;20210;-63
2021/01/15 05:48:57;;;;;;;6.13;4.43;;;-0.90;99.90;;;;;;5051875;28;20216;-63
2021/01/15 05:51:29;;;;;;;5.27;4.10;;;-1.00;99.90;;;;;;5052356;28;20249;-64
2021/01/15 05:53:56;;;;;;;5.37;4.40;;;-1.00;99.90;;;;;;5052103;28;20202;-64
2021/01/15 05:56:23;;;;;;;5.93;4.03;;;-1.00;99.90;;;;;;5052038;28;20233;-63
2021/01/15 05:59:03;;;;;;;5.33;4.27;;;-1.00;99.90;;;;;;5052149;28;20570;-64
2021/01/15 06:01:55;;;;;;;8.33;4.77;;;-1.00;99.90;;;;;;5052015;28;20552;-63
2021/01/15 06:04:33;;;;;;;5.87;4.60;;;-1.10;99.90;;;;;;5052074;28;20508;-64
2021/01/15 06:07:16;;;;;;;7.00;4.90;;;-1.10;99.90;;;;;;5052030;28;20212;-65
2021/01/15 06:09:44;;;;;;;8.30;5.10;;;-1.30;99.90;;;;;;5051882;28;20206;-65
2021/01/15 06:12:12;;;;;;;5.97;5.07;;;-1.30;99.90;;;;;;5051930;28;20229;-64
2021/01/15 06:14:49;;;;;;;8.57;4.97;;;-1.30;99.90;;;;;;5051644;28;20214;-65
2021/01/15 06:17:17;;;;;;;6.93;4.97;;;-1.40;99.90;;;;;;5052192;28;20251;-63
2021/01/15 06:19:45;;;;;;;7.20;5.40;;;-1.40;99.90;;;;;;5052142;28;20588;-63
2021/01/15 06:22:33;;;;;;;7.67;5.17;;;-1.40;99.90;;;;;;5051445;28;20583;-64
2021/01/15 06:25:15;;;;;;;7.40;5.40;;;-1.40;99.90;;;;;;5051804;28;20259;-64
2021/01/15 06:27:43;;;;;;;7.80;5.50;;;-1.30;99.90;;;;;;5051325;28;20209;-63
2021/01/15 06:30:14;;;;;;;8.70;5.40;;;-1.30;99.90;;;;;;5051538;28;20251;-64
2021/01/15 06:32:41;;;;;;;7.77;5.50;;;-1.20;99.90;;;;;;5051144;28;20225;-63
2021/01/15 06:35:08;;;;;;;7.83;5.83;;;-1.20;99.90;;;;;;5050413;28;20202;-64
2021/01/15 06:37:36;;;;;;;6.90;5.27;;;-1.20;99.90;;;;;;5051569;28;20209;-64
2021/01/15 06:40:10;;;;;;;8.63;5.97;;;-1.10;99.90;;;;;;5051326;28;20205;-63
2021/01/15 06:42:44;;;;;;;9.27;5.53;;;-1.10;99.90;;;;;;5051280;28;20228;-65
2021/01/15 06:45:13;;;;;;;8.33;6.13;;;-1.10;99.90;;;;;;5051530;28;20208;-63
2021/01/15 06:47:41;;;;;;;19.10;11.53;;;-1.10;99.90;;;;;;5051432;28;20225;-65
2021/01/15 06:50:13;;;;;;;9.23;6.33;;;-1.00;99.90;;;;;;5051940;28;20271;-64
2021/01/15 06:52:42;;;;;;;9.13;6.13;;;-1.00;99.90;;;;;;5051799;28;20222;-63
2021/01/15 06:55:15;;;;;;;10.60;6.90;;;-1.00;99.90;;;;;;5051764;28;20267;-63
2021/01/15 06:57:46;;;;;;;9.33;6.63;;;-0.70;99.90;;;;;;5051770;28;20213;-64
2021/01/15 07:00:14;;;;;;;12.40;7.93;;;-0.90;99.90;;;;;;5050973;28;20205;-63
2021/01/15 07:03:07;;;;;;;10.30;6.87;;;-0.90;99.90;;;;;;5051301;28;20319;-63
2021/01/15 07:05:44;;;;;;;12.53;6.67;;;-0.80;99.90;;;;;;5051520;28;20206;-63
2021/01/15 07:08:12;;;;;;;11.50;7.00;;;-0.80;99.90;;;;;;5051229;28;20616;-63
2021/01/15 07:10:38;;;;;;;10.87;6.73;;;-0.80;99.90;;;;;;5051124;28;20743;-64
2021/01/15 07:13:09;;;;;;;10.50;7.03;;;-0.80;99.90;;;;;;5051087;28;20263;-64
2021/01/15 07:15:41;;;;;;;11.83;7.03;;;-0.80;99.90;;;;;;5051511;28;20259;-63
2021/01/15 07:18:17;;;;;;;13.47;8.43;;;-0.80;99.90;;;;;;5051210;28;20237;-63
2021/01/15 07:20:46;;;;;;;12.00;7.37;;;-0.80;99.90;;;;;;5051180;28;20205;-63
2021/01/15 07:23:15;;;;;;;11.40;7.13;;;-0.80;99.90;;;;;;5051088;28;20221;-63
2021/01/15 07:25:48;;;;;;;14.30;7.70;;;-0.90;99.90;;;;;;5051466;28;20206;-64
2021/01/15 07:28:15;;;;;;;11.37;7.37;;;-0.80;99.90;;;;;;5051035;28;20665;-62
2021/01/15 07:30:42;;;;;;;11.77;8.27;;;-0.80;99.90;;;;;;5050855;28;20605;-64
2021/01/15 07:33:10;;;;;;;15.33;9.13;;;-0.70;99.90;;;;;;5051127;28;20198;-63
2021/01/15 07:35:37;;;;;;;11.27;7.90;;;-0.70;99.90;;;;;;5050619;28;20212;-64
2021/01/15 07:38:10;;;;;;;9.00;7.10;;;-0.60;99.90;;;;;;5051008;28;20569;-63
2021/01/15 07:40:39;;;;;;;9.50;7.00;;;-0.50;99.90;;;;;;5051070;28;20201;-63
2021/01/15 07:43:07;;;;;;;10.97;7.17;;;-0.50;99.90;;;;;;5051041;28;20634;-63
2021/01/15 07:45:55;;;;;;;12.87;7.23;;;-0.50;99.90;;;;;;5051870;28;20205;-63
2021/01/15 07:48:22;;;;;;;11.37;7.23;;;-0.50;99.90;;;;;;5054676;28;20244;-63
2021/01/15 07:50:50;;;;;;;11.80;7.00;;;-0.40;99.90;;;;;;5054114;28;20673;-64
2021/01/15 07:53:21;;;;;;;13.20;7.70;;;-0.40;99.90;;;;;;5054206;28;20206;-63
2021/01/15 07:55:49;;;;;;;9.80;7.03;;;-0.30;99.90;;;;;;5054218;28;20590;-63
2021/01/15 07:58:17;;;;;;;10.27;7.53;;;-0.30;99.90;;;;;;5054020;28;20675;-63
2021/01/15 08:00:44;;;;;;;10.53;7.30;;;-0.20;99.90;;;;;;5054168;28;20212;-64
2021/01/15 08:03:12;;;;;;;14.77;9.30;;;-0.20;99.90;;;;;;5053927;28;20260;-64
2021/01/15 08:05:38;;;;;;;17.13;10.80;;;-0.10;99.90;;;;;;5053810;28;20206;-64
2021/01/15 08:08:09;;;;;;;12.00;8.07;;;0.00;99.90;;;;;;5053796;28;20204;-64
2021/01/15 08:10:45;;;;;;;12.03;7.30;;;0.10;99.90;;;;;;5054299;28;20205;-63
2021/01/15 08:13:23;;;;;;;11.70;7.60;;;0.10;99.90;;;;;;5053663;28;20201;-63
2021/01/15 08:15:50;;;;;;;12.17;8.07;;;0.20;99.90;;;;;;5054694;28;20205;-65
2021/01/15 08:18:17;;;;;;;9.47;7.53;;;0.20;99.90;;;;;;5054052;28;20315;-65
2021/01/15 08:20:51;;;;;;;10.80;7.77;;;0.30;99.90;;;;;;5053841;28;20201;-63
2021/01/15 08:23:25;;;;;;;10.50;7.43;;;0.30;99.90;;;;;;5053811;28;20259;-63
2021/01/15 08:26:10;;;;;;;12.53;8.20;;;0.40;99.90;;;;;;5053612;28;20259;-63
2021/01/15 08:28:37;;;;;;;10.20;7.67;;;0.30;99.90;;;;;;5053765;28;20205;-63
2021/01/15 08:31:06;;;;;;;25.50;14.57;;;0.30;99.90;;;;;;5053671;28;20225;-64
2021/01/15 08:33:33;;;;;;;10.07;8.27;;;0.40;99.90;;;;;;5053567;28;20259;-63
2021/01/15 08:36:03;;;;;;;11.57;7.57;;;0.50;99.90;;;;;;5053498;28;20245;-64
2021/01/15 08:38:39;;;;;;;10.67;7.47;;;0.50;99.90;;;;;;5053455;28;20206;-63
2021/01/15 08:41:14;;;;;;;10.53;7.60;;;0.50;99.90;;;;;;5052811;28;20312;-64
2021/01/15 08:43:41;;;;;;;11.77;7.33;;;0.50;99.90;;;;;;5053219;28;20225;-63
2021/01/15 08:46:14;;;;;;;12.53;8.13;;;0.50;99.90;;;;;;5053447;28;20209;-63
2021/01/15 08:48:41;;;;;;;11.07;8.33;;;0.50;99.90;;;;;;5055407;28;20213;-63
2021/01/15 08:51:09;;;;;;;10.13;8.13;;;0.50;99.90;;;;;;5054334;28;20229;-65
2021/01/15 08:54:03;;;;;;;11.70;8.37;;;0.50;99.90;;;;;;5052539;28;20654;-65
2021/01/15 08:56:38;;;;;;;11.07;7.93;;;0.50;99.90;;;;;;5053378;28;20212;-64
2021/01/15 08:59:06;;;;;;;13.03;8.33;;;0.50;99.90;;;;;;5052554;28;20201;-63
2021/01/15 09:01:34;;;;;;;13.97;9.43;;;0.50;99.90;;;;;;5052568;28;20316;-63
2021/01/15 09:04:04;;;;;;;13.23;9.23;;;0.50;99.90;;;;;;5052111;28;20697;-63
2021/01/15 09:06:30;;;;;;;14.23;9.73;;;0.60;99.90;;;;;;5052291;28;20212;-64
2021/01/15 09:08:58;;;;;;;11.47;8.10;;;0.60;99.90;;;;;;5052200;28;20205;-64
2021/01/15 09:11:27;;;;;;;12.13;8.47;;;0.70;99.90;;;;;;5051988;28;20226;-63
2021/01/15 09:13:53;;;;;;;11.63;8.50;;;0.70;99.90;;;;;;5052277;28;20248;-65
2021/01/15 09:16:22;;;;;;;12.90;8.90;;;0.60;99.90;;;;;;5052597;28;20296;-63
2021/01/15 09:18:50;;;;;;;12.77;8.67;;;0.60;99.90;;;;;;5052037;28;20217;-64
2021/01/15 09:21:16;;;;;;;10.90;7.87;;;0.50;99.90;;;;;;5052605;28;20269;-63
2021/01/15 09:23:42;;;;;;;13.73;9.33;;;0.50;99.90;;;;;;5051586;28;20225;-64
2021/01/15 09:26:09;;;;;;;11.73;9.17;;;0.40;99.90;;;;;;5052095;28;20232;-63
2021/01/15 09:28:35;;;;;;;12.67;8.50;;;0.40;99.90;;;;;;5052025;28;20221;-65
2021/01/15 09:31:02;;;;;;;14.13;10.17;;;0.60;99.90;;;;;;5052020;28;20233;-64
2021/01/15 09:33:29;;;;;;;14.17;9.97;;;0.70;99.90;;;;;;5052131;28;20467;-63
2021/01/15 09:35:55;;;;;;;14.90;8.50;;;0.70;99.90;;;;;;5052891;28;20260;-64
2021/01/15 09:38:22;;;;;;;11.20;8.47;;;0.70;99.90;;;;;;5052086;28;20201;-64
2021/01/15 09:40:48;;;;;;;12.37;8.33;;;0.60;99.90;;;;;;5051555;28;20635;-62
2021/01/15 09:43:18;;;;;;;12.63;9.17;;;0.50;99.90;;;;;;5052034;28;20221;-63
2021/01/15 09:45:44;;;;;;;13.63;9.00;;;0.50;99.90;;;;;;5051848;28;20217;-64
2021/01/15 09:48:11;;;;;;;13.67;9.17;;;0.60;99.90;;;;;;5052314;28;20272;-63
2021/01/15 09:50:38;;;;;;;12.97;9.13;;;0.80;99.90;;;;;;5052195;28;20216;-64
2021/01/15 09:53:05;;;;;;;14.50;9.53;;;1.00;99.90;;;;;;5051739;28;20213;-61
2021/01/15 09:55:31;;;;;;;14.03;9.87;;;1.20;99.90;;;;;;5051822;28;20205;-61
2021/01/15 09:57:58;;;;;;;12.13;9.30;;;1.30;99.90;;;;;;5051328;28;20217;-61
2021/01/15 10:00:25;;;;;;;11.47;8.50;;;1.30;99.90;;;;;;5051437;28;20356;-60
2021/01/15 10:02:51;;;;;;;11.00;7.83;;;1.40;99.90;;;;;;5051338;28;20287;-61
2021/01/15 10:05:18;;;;;;;10.87;8.73;;;1.40;99.90;;;;;;5051144;28;20212;-61
2021/01/15 10:07:46;;;;;;;10.67;8.37;;;1.40;99.90;;;;;;5050881;28;20457;-60
2021/01/15 10:10:13;;;;;;;12.10;8.87;;;1.50;99.90;;;;;;5050446;28;20710;-60
2021/01/15 10:12:43;;;;;;;14.20;9.20;;;1.70;99.90;;;;;;5051054;28;20244;-60
2021/01/15 10:15:10;;;;;;;11.80;8.73;;;1.70;99.90;;;;;;5051297;28;20205;-61
2021/01/15 10:17:43;;;;;;;11.97;8.13;;;1.80;99.90;;;;;;5051099;28;20209;-60
2021/01/15 10:20:11;;;;;;;11.27;7.73;;;1.90;99.90;;;;;;5050985;28;20209;-60
2021/01/15 10:22:37;;;;;;;12.77;8.80;;;2.00;99.90;;;;;;5050692;28;20225;-60
2021/01/15 10:25:05;;;;;;;12.23;8.57;;;2.10;99.90;;;;;;5050986;28;20202;-60
2021/01/15 10:27:31;;;;;;;11.53;8.83;;;2.30;99.90;;;;;;5051450;28;20209;-60
2021/01/15 10:29:57;;;;;;;12.17;8.87;;;2.40;99.90;;;;;;5050955;28;20201;-60
2021/01/15 10:32:24;;;;;;;10.73;8.00;;;2.50;99.90;;;;;;5050980;28;20755;-60
2021/01/15 10:34:50;;;;;;;9.93;7.53;;;2.60;99.90;;;;;;5050717;28;20254;-60
2021/01/15 10:37:16;;;;;;;12.43;8.10;;;2.60;99.90;;;;;;5051043;28;20213;-60
2021/01/15 10:39:42;;;;;;;11.80;7.70;;;2.60;99.90;;;;;;5050801;28;20264;-63
2021/01/15 10:42:09;;;;;;;9.73;7.77;;;2.70;99.90;;;;;;5050671;28;20225;-63
2021/01/15 10:44:35;;;;;;;9.53;7.50;;;2.70;99.90;;;;;;5050586;28;20731;-61
2021/01/15 10:47:03;;;;;;;12.10;8.20;;;2.60;99.90;;;;;;5050797;28;20206;-61
2021/01/15 10:49:29;;;;;;;10.63;7.70;;;2.50;99.90;;;;;;5050664;28;20213;-60
2021/01/15 10:51:56;;;;;;;11.37;8.20;;;2.50;99.90;;;;;;5050964;28;20229;-61
2021/01/15 10:54:22;;;;;;;12.57;7.77;;;2.50;99.90;;;;;;5050790;28;20201;-61
2021/01/15 10:56:51;;;;;;;11.67;8.67;;;2.60;99.90;;;;;;5050856;28;20205;-60
2021/01/15 10:59:18;;;;;;;11.33;7.97;;;2.40;99.90;;;;;;5050851;28;20201;-60
2021/01/15 11:01:45;;;;;;;11.87;7.60;;;2.40;99.90;;;;;;5050881;28;20605;-60
2021/01/15 11:04:12;;;;;;;10.53;7.60;;;2.40;99.90;;;;;;5050984;28;20232;-60
2021/01/15 11:06:40;;;;;;;9.97;8.03;;;2.40;99.90;;;;;;5050882;28;20263;-59
2021/01/15 11:09:07;;;;;;;10.43;8.07;;;2.30;99.90;;;;;;5050750;28;20206;-60
2021/01/15 11:11:34;;;;;;;9.53;7.40;;;2.50;99.90;;;;;;5050478;28;20225;-63
2021/01/15 11:14:00;;;;;;;10.20;7.57;;;2.60;99.90;;;;;;5050491;28;20201;-62
2021/01/15 11:16:28;;;;;;;10.87;7.63;;;2.70;99.90;;;;;;5050369;28;20216;-61
2021/01/15 11:18:54;;;;;;;12.03;7.43;;;2.90;99.90;;;;;;5050633;28;20206;-61
2021/01/15 11:21:23;;;;;;;9.23;7.10;;;3.00;99.90;;;;;;5052505;28;20252;-60
2021/01/15 11:23:49;;;;;;;10.03;7.67;;;3.10;99.90;;;;;;5053873;28;20225;-60
2021/01/15 11:26:21;;;;;;;9.47;7.07;;;3.10;99.90;;;;;;5054352;28;20217;-64
2021/01/15 11:28:47;;;;;;;10.70;7.40;;;3.20;99.90;;;;;;5053911;28;20209;-61
2021/01/15 11:31:15;;;;;;;9.77;7.30;;;3.40;99.90;;;;;;5053543;28;20226;-61
2021/01/15 11:33:42;;;;;;;10.33;7.03;;;3.50;99.80;;;;;;5053790;28;20201;-60
2021/01/15 11:36:10;;;;;;;11.90;7.43;;;3.70;99.50;;;;;;5053624;28;20673;-64
2021/01/15 11:38:37;;;;;;;9.87;7.47;;;3.70;99.40;;;;;;5053615;28;20371;-61
2021/01/15 11:41:03;;;;;;;10.37;7.60;;;3.80;99.20;;;;;;5053406;28;20733;-61
2021/01/15 11:43:32;;;;;;;9.23;6.73;;;3.80;99.30;;;;;;5053419;28;20252;-62
2021/01/15 11:46:00;;;;;;;10.00;6.90;;;3.80;99.00;;;;;;5054318;28;20209;-60
2021/01/15 11:48:27;;;;;;;8.27;6.57;;;4.00;99.00;;;;;;5053701;28;20205;-60
2021/01/15 11:50:54;;;;;;;10.80;6.77;;;4.00;98.60;;;;;;5053671;28;20206;-63
2021/01/15 11:53:21;;;;;;;8.57;6.70;;;4.00;98.60;;;;;;5053626;28;20202;-61
2021/01/15 11:55:48;;;;;;;10.73;7.30;;;4.00;98.50;;;;;;5053425;28;20496;-61
2021/01/15 11:58:14;;;;;;;10.57;7.20;;;4.00;98.30;;;;;;5052814;28;20787;-62
2021/01/15 12:00:41;;;;;;;9.63;6.70;;;4.10;98.30;;;;;;5053203;28;20715;-61
2021/01/15 12:03:07;;;;;;;8.23;7.07;;;4.20;97.80;;;;;;5053464;28;20229;-61
2021/01/15 12:05:33;;;;;;;10.00;6.60;;;4.30;97.90;;;;;;5053538;28;20210;-60
2021/01/15 12:08:02;;;;;;;10.60;8.07;;;4.50;97.80;;;;;;5053281;28;20272;-60
2021/01/15 12:10:28;;;;;;;9.10;6.73;;;4.60;98.00;;;;;;5053209;28;20205;-64
2021/01/15 12:12:55;;;;;;;9.60;7.40;;;4.70;97.40;;;;;;5052848;28;20225;-63
2021/01/15 12:15:21;;;;;;;8.10;6.60;;;4.60;97.60;;;;;;5052857;28;20217;-63
2021/01/15 12:17:47;;;;;;;10.63;7.20;;;4.60;97.40;;;;;;5053180;28;20217;-63
2021/01/15 12:20:14;;;;;;;12.63;7.17;;;4.50;97.20;;;;;;5053227;28;20205;-63
2021/01/15 12:22:40;;;;;;;10.53;6.40;;;4.50;97.20;;;;;;5052894;28;20615;-60
2021/01/15 12:25:09;;;;;;;10.10;7.10;;;4.40;97.20;;;;;;5052860;28;20267;-60
2021/01/15 12:27:36;;;;;;;9.40;7.50;;;4.40;97.70;;;;;;5052913;28;20208;-64
2021/01/15 12:30:02;;;;;;;9.87;8.23;;;4.40;98.00;;;;;;5053041;28;20212;-61
2021/01/15 12:32:28;;;;;;;10.63;8.20;;;4.40;98.10;;;;;;5052311;28;20700;-61
2021/01/15 12:34:54;;;;;;;10.93;8.10;;;4.40;97.90;;;;;;5053134;28;20228;-60
2021/01/15 12:37:23;;;;;;;9.20;6.97;;;4.50;98.00;;;;;;5053260;28;20201;-60
2021/01/15 12:39:49;;;;;;;20.90;12.73;;;4.50;97.80;;;;;;5053301;28;20584;-62
2021/01/15 12:42:17;;;;;;;10.87;7.77;;;4.50;97.70;;;;;;5053328;28;20411;-62
2021/01/15 12:44:43;;;;;;;10.13;8.27;;;4.60;97.70;;;;;;5052355;28;20209;-60
2021/01/15 12:47:09;;;;;;;8.20;6.83;;;4.70;97.70;;;;;;5052397;28;20243;-62
2021/01/15 12:49:35;;;;;;;10.37;7.87;;;4.60;97.40;;;;;;5052305;28;20669;-65
2021/01/15 12:52:01;;;;;;;9.80;7.60;;;4.60;97.50;;;;;;5052665;28;20601;-64
2021/01/15 12:54:27;;;;;;;9.97;8.03;;;4.70;97.50;;;;;;5052381;28;20206;-62
2021/01/15 12:56:53;;;;;;;10.60;8.33;;;4.70;97.50;;;;;;5052669;28;20205;-61
2021/01/15 12:59:20;;;;;;;11.57;8.50;;;4.80;97.60;;;;;;5052414;28;20827;-61